sensor_id;sensor_type;location;lat;lon;timestamp;P1;durP1;ratioP1;P2;durP2;ratioP2
68438;SDS011;55421;51.600;5.718;2024-03-22T00:02:09;36.90;;;18.40;;
68438;SDS011;55421;51.600;5.718;2024-03-22T00:04:36;43.10;;;19.50;;
68438;SDS011;55421;51.600;5.718;2024-03-22T00:07:04;37.60;;;17.50;;
68438;SDS011;55421;51.600;5.718;2024-03-22T00:09:30;38.90;;;19.20;;
68438;SDS011;55421;51.600;5.718;2024-03-22T00:11:57;40.80;;;19.30;;
68438;SDS011;55421;51.600;5.718;2024-03-22T00:14:23;43.20;;;20.80;;
68438;SDS011;55421;51.600;5.718;2024-03-22T00:16:50;43.60;;;21.30;;
68438;SDS011;55421;51.600;5.718;2024-03-22T00:19:16;41.10;;;19.90;;
68438;SDS011;55421;51.600;5.718;2024-03-22T00:21:43;44.60;;;20.80;;
68438;SDS011;55421;51.600;5.718;2024-03-22T00:24:09;40.80;;;19.80;;
68438;SDS011;55421;51.600;5.718;2024-03-22T00:26:36;41.70;;;18.90;;
68438;SDS011;55421;51.600;5.718;2024-03-22T00:29:02;43.50;;;19.80;;
68438;SDS011;55421;51.600;5.718;2024-03-22T00:31:29;41.60;;;20.40;;
68438;SDS011;55421;51.600;5.718;2024-03-22T00:33:55;40.50;;;20.00;;
68438;SDS011;55421;51.600;5.718;2024-03-22T00:36:21;38.90;;;20.00;;
68438;SDS011;55421;51.600;5.718;2024-03-22T00:38:48;43.70;;;20.70;;
68438;SDS011;55421;51.600;5.718;2024-03-22T00:41:14;44.40;;;21.20;;
68438;SDS011;55421;51.600;5.718;2024-03-22T00:43:40;42.50;;;21.00;;
68438;SDS011;55421;51.600;5.718;2024-03-22T00:46:07;40.80;;;20.30;;
68438;SDS011;55421;51.600;5.718;2024-03-22T00:48:34;40.10;;;20.40;;
68438;SDS011;55421;51.600;5.718;2024-03-22T00:51:02;40.00;;;20.80;;
68438;SDS011;55421;51.600;5.718;2024-03-22T00:53:29;44.40;;;20.50;;
68438;SDS011;55421;51.600;5.718;2024-03-22T00:55:56;45.80;;;21.30;;
68438;SDS011;55421;51.600;5.718;2024-03-22T00:58:26;42.40;;;21.10;;
68438;SDS011;55421;51.600;5.718;2024-03-22T01:00:54;39.90;;;20.00;;
68438;SDS011;55421;51.600;5.718;2024-03-22T01:03:21;43.10;;;19.80;;
68438;SDS011;55421;51.600;5.718;2024-03-22T01:05:48;40.60;;;20.50;;
68438;SDS011;55421;51.600;5.718;2024-03-22T01:08:14;43.30;;;20.50;;
68438;SDS011;55421;51.600;5.718;2024-03-22T01:10:41;42.00;;;20.30;;
68438;SDS011;55421;51.600;5.718;2024-03-22T01:13:08;41.10;;;19.40;;
68438;SDS011;55421;51.600;5.718;2024-03-22T01:15:34;41.40;;;20.10;;
68438;SDS011;55421;51.600;5.718;2024-03-22T01:18:01;40.60;;;20.40;;
68438;SDS011;55421;51.600;5.718;2024-03-22T01:20:28;42.40;;;20.60;;
68438;SDS011;55421;51.600;5.718;2024-03-22T01:22:55;41.40;;;20.70;;
68438;SDS011;55421;51.600;5.718;2024-03-22T01:25:21;42.90;;;20.40;;
68438;SDS011;55421;51.600;5.718;2024-03-22T01:27:47;38.40;;;20.60;;
68438;SDS011;55421;51.600;5.718;2024-03-22T01:30:14;41.30;;;21.50;;
68438;SDS011;55421;51.600;5.718;2024-03-22T01:32:40;42.40;;;20.90;;
68438;SDS011;55421;51.600;5.718;2024-03-22T01:35:07;42.80;;;20.30;;
68438;SDS011;55421;51.600;5.718;2024-03-22T01:37:34;43.80;;;21.10;;
68438;SDS011;55421;51.600;5.718;2024-03-22T01:40:01;39.40;;;20.40;;
68438;SDS011;55421;51.600;5.718;2024-03-22T01:42:27;39.80;;;20.50;;
68438;SDS011;55421;51.600;5.718;2024-03-22T01:44:53;46.40;;;20.70;;
68438;SDS011;55421;51.600;5.718;2024-03-22T01:47:20;43.00;;;20.40;;
68438;SDS011;55421;51.600;5.718;2024-03-22T01:49:47;44.00;;;21.30;;
68438;SDS011;55421;51.600;5.718;2024-03-22T01:52:17;41.80;;;20.80;;
68438;SDS011;55421;51.600;5.718;2024-03-22T01:54:43;40.80;;;20.50;;
68438;SDS011;55421;51.600;5.718;2024-03-22T01:57:09;39.80;;;20.60;;
68438;SDS011;55421;51.600;5.718;2024-03-22T01:59:36;40.00;;;20.90;;
68438;SDS011;55421;51.600;5.718;2024-03-22T02:02:03;41.10;;;21.00;;
68438;SDS011;55421;51.600;5.718;2024-03-22T02:04:30;36.40;;;19.70;;
68438;SDS011;55421;51.600;5.718;2024-03-22T02:06:56;42.90;;;20.70;;
68438;SDS011;55421;51.600;5.718;2024-03-22T02:09:22;46.40;;;21.30;;
68438;SDS011;55421;51.600;5.718;2024-03-22T02:11:49;39.70;;;20.20;;
68438;SDS011;55421;51.600;5.718;2024-03-22T02:14:15;37.90;;;20.50;;
68438;SDS011;55421;51.600;5.718;2024-03-22T02:16:42;39.60;;;19.60;;
68438;SDS011;55421;51.600;5.718;2024-03-22T02:19:09;37.80;;;19.50;;
68438;SDS011;55421;51.600;5.718;2024-03-22T02:21:36;38.00;;;19.90;;
68438;SDS011;55421;51.600;5.718;2024-03-22T02:24:02;40.80;;;20.90;;
68438;SDS011;55421;51.600;5.718;2024-03-22T02:26:31;38.20;;;19.70;;
68438;SDS011;55421;51.600;5.718;2024-03-22T02:28:57;36.90;;;18.70;;
68438;SDS011;55421;51.600;5.718;2024-03-22T02:31:23;36.10;;;19.10;;
68438;SDS011;55421;51.600;5.718;2024-03-22T02:33:51;40.20;;;19.10;;
68438;SDS011;55421;51.600;5.718;2024-03-22T02:36:17;37.00;;;19.10;;
68438;SDS011;55421;51.600;5.718;2024-03-22T02:38:44;35.60;;;18.50;;
68438;SDS011;55421;51.600;5.718;2024-03-22T02:41:10;38.90;;;19.80;;
68438;SDS011;55421;51.600;5.718;2024-03-22T02:43:37;38.20;;;19.50;;
68438;SDS011;55421;51.600;5.718;2024-03-22T02:46:04;33.70;;;18.20;;
68438;SDS011;55421;51.600;5.718;2024-03-22T02:48:30;36.50;;;19.50;;
68438;SDS011;55421;51.600;5.718;2024-03-22T02:50:57;36.90;;;19.80;;
68438;SDS011;55421;51.600;5.718;2024-03-22T02:53:24;29.30;;;16.50;;
68438;SDS011;55421;51.600;5.718;2024-03-22T02:55:50;32.80;;;17.90;;
68438;SDS011;55421;51.600;5.718;2024-03-22T02:58:18;32.90;;;17.90;;
68438;SDS011;55421;51.600;5.718;2024-03-22T03:00:46;35.60;;;17.90;;
68438;SDS011;55421;51.600;5.718;2024-03-22T03:03:12;35.90;;;18.60;;
68438;SDS011;55421;51.600;5.718;2024-03-22T03:05:38;30.90;;;17.30;;
68438;SDS011;55421;51.600;5.718;2024-03-22T03:08:07;32.40;;;18.30;;
68438;SDS011;55421;51.600;5.718;2024-03-22T03:10:33;30.90;;;17.20;;
68438;SDS011;55421;51.600;5.718;2024-03-22T03:13:00;33.70;;;17.60;;
68438;SDS011;55421;51.600;5.718;2024-03-22T03:15:26;36.50;;;19.60;;
68438;SDS011;55421;51.600;5.718;2024-03-22T03:17:52;34.80;;;17.00;;
68438;SDS011;55421;51.600;5.718;2024-03-22T03:20:19;33.00;;;18.00;;
68438;SDS011;55421;51.600;5.718;2024-03-22T03:22:45;34.50;;;18.10;;
68438;SDS011;55421;51.600;5.718;2024-03-22T03:25:12;33.80;;;17.00;;
68438;SDS011;55421;51.600;5.718;2024-03-22T03:27:39;32.00;;;17.20;;
68438;SDS011;55421;51.600;5.718;2024-03-22T03:30:06;32.80;;;18.00;;
68438;SDS011;55421;51.600;5.718;2024-03-22T03:32:33;32.60;;;18.40;;
68438;SDS011;55421;51.600;5.718;2024-03-22T03:34:59;33.50;;;17.20;;
68438;SDS011;55421;51.600;5.718;2024-03-22T03:37:25;31.80;;;17.20;;
68438;SDS011;55421;51.600;5.718;2024-03-22T03:39:52;28.60;;;16.40;;
68438;SDS011;55421;51.600;5.718;2024-03-22T03:42:18;32.40;;;16.90;;
68438;SDS011;55421;51.600;5.718;2024-03-22T03:44:44;32.60;;;16.10;;
68438;SDS011;55421;51.600;5.718;2024-03-22T03:47:11;29.40;;;16.60;;
68438;SDS011;55421;51.600;5.718;2024-03-22T03:49:37;30.80;;;17.30;;
68438;SDS011;55421;51.600;5.718;2024-03-22T03:52:03;29.90;;;16.70;;
68438;SDS011;55421;51.600;5.718;2024-03-22T03:54:30;30.90;;;16.40;;
68438;SDS011;55421;51.600;5.718;2024-03-22T03:56:56;30.10;;;15.70;;
68438;SDS011;55421;51.600;5.718;2024-03-22T03:59:23;30.90;;;16.10;;
68438;SDS011;55421;51.600;5.718;2024-03-22T04:01:49;30.50;;;16.40;;
68438;SDS011;55421;51.600;5.718;2024-03-22T04:04:15;31.60;;;17.10;;
68438;SDS011;55421;51.600;5.718;2024-03-22T04:06:44;33.80;;;17.50;;
68438;SDS011;55421;51.600;5.718;2024-03-22T04:09:10;32.90;;;16.60;;
68438;SDS011;55421;51.600;5.718;2024-03-22T04:11:37;31.90;;;17.70;;
68438;SDS011;55421;51.600;5.718;2024-03-22T04:14:04;29.60;;;17.20;;
68438;SDS011;55421;51.600;5.718;2024-03-22T04:16:31;32.00;;;16.50;;
68438;SDS011;55421;51.600;5.718;2024-03-22T04:18:58;28.40;;;16.20;;
68438;SDS011;55421;51.600;5.718;2024-03-22T04:21:26;33.80;;;17.30;;
68438;SDS011;55421;51.600;5.718;2024-03-22T04:23:52;28.80;;;15.60;;
68438;SDS011;55421;51.600;5.718;2024-03-22T04:26:18;35.80;;;17.70;;
68438;SDS011;55421;51.600;5.718;2024-03-22T04:28:45;28.00;;;16.40;;
68438;SDS011;55421;51.600;5.718;2024-03-22T04:31:11;30.30;;;17.10;;
68438;SDS011;55421;51.600;5.718;2024-03-22T04:33:38;30.30;;;15.40;;
68438;SDS011;55421;51.600;5.718;2024-03-22T04:36:04;33.30;;;17.90;;
68438;SDS011;55421;51.600;5.718;2024-03-22T04:38:31;29.70;;;17.00;;
68438;SDS011;55421;51.600;5.718;2024-03-22T04:40:58;30.10;;;17.00;;
68438;SDS011;55421;51.600;5.718;2024-03-22T04:43:24;27.40;;;15.90;;
68438;SDS011;55421;51.600;5.718;2024-03-22T04:45:51;28.40;;;16.60;;
68438;SDS011;55421;51.600;5.718;2024-03-22T04:48:19;31.30;;;17.00;;
68438;SDS011;55421;51.600;5.718;2024-03-22T04:50:48;30.70;;;16.40;;
68438;SDS011;55421;51.600;5.718;2024-03-22T04:53:17;31.90;;;16.80;;
68438;SDS011;55421;51.600;5.718;2024-03-22T04:55:44;30.40;;;16.70;;
68438;SDS011;55421;51.600;5.718;2024-03-22T04:58:15;29.00;;;16.60;;
68438;SDS011;55421;51.600;5.718;2024-03-22T05:00:44;26.90;;;16.30;;
68438;SDS011;55421;51.600;5.718;2024-03-22T05:03:11;35.10;;;17.30;;
68438;SDS011;55421;51.600;5.718;2024-03-22T05:05:38;30.20;;;15.80;;
68438;SDS011;55421;51.600;5.718;2024-03-22T05:08:06;30.50;;;17.20;;
68438;SDS011;55421;51.600;5.718;2024-03-22T05:10:34;27.50;;;17.00;;
68438;SDS011;55421;51.600;5.718;2024-03-22T05:13:00;24.80;;;14.50;;
68438;SDS011;55421;51.600;5.718;2024-03-22T05:15:27;29.30;;;16.00;;
68438;SDS011;55421;51.600;5.718;2024-03-22T05:17:57;28.50;;;15.10;;
68438;SDS011;55421;51.600;5.718;2024-03-22T05:22:51;24.60;;;14.60;;
68438;SDS011;55421;51.600;5.718;2024-03-22T05:25:18;20.90;;;12.40;;
68438;SDS011;55421;51.600;5.718;2024-03-22T05:27:45;30.50;;;15.60;;
68438;SDS011;55421;51.600;5.718;2024-03-22T05:30:12;28.80;;;15.50;;
68438;SDS011;55421;51.600;5.718;2024-03-22T05:32:42;29.50;;;16.60;;
68438;SDS011;55421;51.600;5.718;2024-03-22T05:35:08;23.60;;;14.10;;
68438;SDS011;55421;51.600;5.718;2024-03-22T05:37:35;28.20;;;16.60;;
68438;SDS011;55421;51.600;5.718;2024-03-22T05:40:02;23.30;;;12.50;;
68438;SDS011;55421;51.600;5.718;2024-03-22T05:42:32;27.60;;;15.80;;
68438;SDS011;55421;51.600;5.718;2024-03-22T05:44:59;26.60;;;16.00;;
68438;SDS011;55421;51.600;5.718;2024-03-22T05:47:25;28.80;;;15.80;;
68438;SDS011;55421;51.600;5.718;2024-03-22T05:49:52;26.30;;;15.50;;
68438;SDS011;55421;51.600;5.718;2024-03-22T05:52:18;29.40;;;15.60;;
68438;SDS011;55421;51.600;5.718;2024-03-22T05:54:45;26.90;;;15.20;;
68438;SDS011;55421;51.600;5.718;2024-03-22T05:57:11;25.10;;;15.00;;
68438;SDS011;55421;51.600;5.718;2024-03-22T05:59:38;25.60;;;14.90;;
68438;SDS011;55421;51.600;5.718;2024-03-22T06:02:05;28.40;;;15.50;;
68438;SDS011;55421;51.600;5.718;2024-03-22T06:04:31;27.30;;;13.50;;
68438;SDS011;55421;51.600;5.718;2024-03-22T06:06:59;28.80;;;16.90;;
68438;SDS011;55421;51.600;5.718;2024-03-22T06:09:26;25.20;;;14.30;;
68438;SDS011;55421;51.600;5.718;2024-03-22T06:12:12;31.50;;;15.80;;
68438;SDS011;55421;51.600;5.718;2024-03-22T06:14:40;25.20;;;14.60;;
68438;SDS011;55421;51.600;5.718;2024-03-22T06:17:09;28.20;;;15.20;;
68438;SDS011;55421;51.600;5.718;2024-03-22T06:19:35;29.60;;;15.60;;
68438;SDS011;55421;51.600;5.718;2024-03-22T06:22:04;27.30;;;15.00;;
68438;SDS011;55421;51.600;5.718;2024-03-22T06:24:30;26.40;;;15.00;;
68438;SDS011;55421;51.600;5.718;2024-03-22T06:26:57;24.70;;;13.90;;
68438;SDS011;55421;51.600;5.718;2024-03-22T06:29:24;25.30;;;14.50;;
68438;SDS011;55421;51.600;5.718;2024-03-22T06:31:50;29.80;;;15.30;;
68438;SDS011;55421;51.600;5.718;2024-03-22T06:34:18;27.40;;;14.90;;
68438;SDS011;55421;51.600;5.718;2024-03-22T06:36:45;22.30;;;13.00;;
68438;SDS011;55421;51.600;5.718;2024-03-22T06:39:11;24.90;;;14.00;;
68438;SDS011;55421;51.600;5.718;2024-03-22T06:41:38;24.40;;;14.30;;
68438;SDS011;55421;51.600;5.718;2024-03-22T06:44:04;23.50;;;13.20;;
68438;SDS011;55421;51.600;5.718;2024-03-22T06:46:30;24.80;;;13.90;;
68438;SDS011;55421;51.600;5.718;2024-03-22T06:48:57;26.40;;;13.70;;
68438;SDS011;55421;51.600;5.718;2024-03-22T06:51:24;25.60;;;12.80;;
68438;SDS011;55421;51.600;5.718;2024-03-22T06:53:51;21.50;;;12.10;;
68438;SDS011;55421;51.600;5.718;2024-03-22T06:56:17;23.60;;;13.30;;
68438;SDS011;55421;51.600;5.718;2024-03-22T06:58:44;24.50;;;13.90;;
68438;SDS011;55421;51.600;5.718;2024-03-22T07:01:10;21.80;;;12.60;;
68438;SDS011;55421;51.600;5.718;2024-03-22T07:03:37;22.10;;;12.70;;
68438;SDS011;55421;51.600;5.718;2024-03-22T07:06:03;26.70;;;13.20;;
68438;SDS011;55421;51.600;5.718;2024-03-22T07:08:32;28.40;;;12.90;;
68438;SDS011;55421;51.600;5.718;2024-03-22T07:10:58;23.00;;;12.10;;
68438;SDS011;55421;51.600;5.718;2024-03-22T07:13:25;20.30;;;11.80;;
68438;SDS011;55421;51.600;5.718;2024-03-22T07:15:52;21.20;;;11.60;;
68438;SDS011;55421;51.600;5.718;2024-03-22T07:18:18;17.50;;;9.90;;
68438;SDS011;55421;51.600;5.718;2024-03-22T07:20:45;20.20;;;11.00;;
68438;SDS011;55421;51.600;5.718;2024-03-22T07:23:11;19.40;;;11.10;;
68438;SDS011;55421;51.600;5.718;2024-03-22T07:25:38;19.20;;;11.20;;
68438;SDS011;55421;51.600;5.718;2024-03-22T07:28:04;18.10;;;10.90;;
68438;SDS011;55421;51.600;5.718;2024-03-22T07:30:31;25.30;;;12.50;;
68438;SDS011;55421;51.600;5.718;2024-03-22T07:32:57;17.70;;;10.80;;
68438;SDS011;55421;51.600;5.718;2024-03-22T07:35:23;20.10;;;12.30;;
68438;SDS011;55421;51.600;5.718;2024-03-22T07:37:51;19.10;;;12.00;;
68438;SDS011;55421;51.600;5.718;2024-03-22T07:40:17;21.10;;;12.80;;
68438;SDS011;55421;51.600;5.718;2024-03-22T07:42:43;20.10;;;11.40;;
68438;SDS011;55421;51.600;5.718;2024-03-22T07:45:10;20.80;;;11.80;;
68438;SDS011;55421;51.600;5.718;2024-03-22T07:47:36;17.70;;;10.20;;
68438;SDS011;55421;51.600;5.718;2024-03-22T07:50:04;19.00;;;11.60;;
68438;SDS011;55421;51.600;5.718;2024-03-22T07:52:31;17.90;;;10.70;;
68438;SDS011;55421;51.600;5.718;2024-03-22T07:54:58;16.70;;;11.10;;
68438;SDS011;55421;51.600;5.718;2024-03-22T07:57:24;21.10;;;12.00;;
68438;SDS011;55421;51.600;5.718;2024-03-22T07:59:51;21.60;;;13.80;;
68438;SDS011;55421;51.600;5.718;2024-03-22T08:02:17;22.70;;;13.30;;
68438;SDS011;55421;51.600;5.718;2024-03-22T08:04:43;21.60;;;12.80;;
68438;SDS011;55421;51.600;5.718;2024-03-22T08:07:10;18.50;;;11.90;;
68438;SDS011;55421;51.600;5.718;2024-03-22T08:09:36;16.70;;;11.30;;
68438;SDS011;55421;51.600;5.718;2024-03-22T08:12:03;22.50;;;13.00;;
68438;SDS011;55421;51.600;5.718;2024-03-22T08:14:29;19.50;;;12.60;;
68438;SDS011;55421;51.600;5.718;2024-03-22T08:16:56;24.90;;;14.70;;
68438;SDS011;55421;51.600;5.718;2024-03-22T08:19:22;22.60;;;13.80;;
68438;SDS011;55421;51.600;5.718;2024-03-22T08:21:48;25.70;;;13.40;;
68438;SDS011;55421;51.600;5.718;2024-03-22T08:24:15;21.30;;;13.90;;
68438;SDS011;55421;51.600;5.718;2024-03-22T08:26:42;20.20;;;13.70;;
68438;SDS011;55421;51.600;5.718;2024-03-22T08:29:11;22.00;;;13.80;;
68438;SDS011;55421;51.600;5.718;2024-03-22T08:31:37;20.90;;;14.30;;
68438;SDS011;55421;51.600;5.718;2024-03-22T08:34:04;26.80;;;13.70;;
68438;SDS011;55421;51.600;5.718;2024-03-22T08:36:31;21.20;;;13.20;;
68438;SDS011;55421;51.600;5.718;2024-03-22T08:38:58;21.10;;;13.80;;
68438;SDS011;55421;51.600;5.718;2024-03-22T08:41:24;21.40;;;13.70;;
68438;SDS011;55421;51.600;5.718;2024-03-22T08:43:51;19.90;;;13.10;;
68438;SDS011;55421;51.600;5.718;2024-03-22T08:46:17;24.30;;;14.00;;
68438;SDS011;55421;51.600;5.718;2024-03-22T08:48:43;19.40;;;13.10;;
68438;SDS011;55421;51.600;5.718;2024-03-22T08:51:10;19.80;;;13.60;;
68438;SDS011;55421;51.600;5.718;2024-03-22T08:53:38;22.90;;;13.60;;
68438;SDS011;55421;51.600;5.718;2024-03-22T08:56:05;19.90;;;13.60;;
68438;SDS011;55421;51.600;5.718;2024-03-22T08:58:31;20.50;;;12.90;;
68438;SDS011;55421;51.600;5.718;2024-03-22T09:00:57;22.40;;;14.20;;
68438;SDS011;55421;51.600;5.718;2024-03-22T09:03:24;21.30;;;13.30;;
68438;SDS011;55421;51.600;5.718;2024-03-22T09:05:53;21.20;;;14.00;;
68438;SDS011;55421;51.600;5.718;2024-03-22T09:08:20;21.50;;;14.60;;
68438;SDS011;55421;51.600;5.718;2024-03-22T09:10:47;26.00;;;15.20;;
68438;SDS011;55421;51.600;5.718;2024-03-22T09:13:14;21.00;;;14.20;;
68438;SDS011;55421;51.600;5.718;2024-03-22T09:15:41;21.50;;;13.80;;
68438;SDS011;55421;51.600;5.718;2024-03-22T09:18:07;22.20;;;13.60;;
68438;SDS011;55421;51.600;5.718;2024-03-22T09:20:33;22.10;;;14.00;;
68438;SDS011;55421;51.600;5.718;2024-03-22T09:23:00;23.00;;;13.80;;
68438;SDS011;55421;51.600;5.718;2024-03-22T09:25:27;24.80;;;14.50;;
68438;SDS011;55421;51.600;5.718;2024-03-22T09:27:53;19.70;;;12.80;;
68438;SDS011;55421;51.600;5.718;2024-03-22T09:30:20;21.80;;;13.60;;
68438;SDS011;55421;51.600;5.718;2024-03-22T09:32:46;24.60;;;13.20;;
68438;SDS011;55421;51.600;5.718;2024-03-22T09:35:12;20.60;;;12.20;;
68438;SDS011;55421;51.600;5.718;2024-03-22T09:37:43;18.00;;;10.70;;
68438;SDS011;55421;51.600;5.718;2024-03-22T09:40:10;19.90;;;12.60;;
68438;SDS011;55421;51.600;5.718;2024-03-22T09:42:38;34.40;;;12.80;;
68438;SDS011;55421;51.600;5.718;2024-03-22T09:45:08;15.60;;;10.50;;
68438;SDS011;55421;51.600;5.718;2024-03-22T09:47:37;19.60;;;12.40;;
68438;SDS011;55421;51.600;5.718;2024-03-22T09:50:07;19.00;;;12.80;;
68438;SDS011;55421;51.600;5.718;2024-03-22T09:52:37;16.30;;;10.70;;
68438;SDS011;55421;51.600;5.718;2024-03-22T09:55:09;20.40;;;11.70;;
68438;SDS011;55421;51.600;5.718;2024-03-22T09:57:40;18.40;;;10.90;;
68438;SDS011;55421;51.600;5.718;2024-03-22T10:00:12;18.40;;;12.30;;
68438;SDS011;55421;51.600;5.718;2024-03-22T10:02:46;20.50;;;12.70;;
68438;SDS011;55421;51.600;5.718;2024-03-22T10:05:13;15.60;;;10.10;;
68438;SDS011;55421;51.600;5.718;2024-03-22T10:07:40;19.20;;;11.60;;
68438;SDS011;55421;51.600;5.718;2024-03-22T10:10:08;17.30;;;11.30;;
68438;SDS011;55421;51.600;5.718;2024-03-22T10:12:36;22.60;;;11.90;;
68438;SDS011;55421;51.600;5.718;2024-03-22T10:15:06;17.90;;;9.80;;
68438;SDS011;55421;51.600;5.718;2024-03-22T10:17:36;21.20;;;11.70;;
68438;SDS011;55421;51.600;5.718;2024-03-22T10:20:05;18.80;;;12.40;;
68438;SDS011;55421;51.600;5.718;2024-03-22T10:22:42;15.70;;;10.00;;
68438;SDS011;55421;51.600;5.718;2024-03-22T10:25:30;20.10;;;12.20;;
68438;SDS011;55421;51.600;5.718;2024-03-22T10:27:57;16.40;;;11.40;;
68438;SDS011;55421;51.600;5.718;2024-03-22T10:30:26;18.20;;;11.50;;
68438;SDS011;55421;51.600;5.718;2024-03-22T10:32:53;17.90;;;11.90;;
68438;SDS011;55421;51.600;5.718;2024-03-22T10:35:20;16.80;;;11.40;;
68438;SDS011;55421;51.600;5.718;2024-03-22T10:37:48;15.20;;;10.90;;
68438;SDS011;55421;51.600;5.718;2024-03-22T10:40:15;15.40;;;10.10;;
68438;SDS011;55421;51.600;5.718;2024-03-22T10:42:42;18.40;;;11.00;;
68438;SDS011;55421;51.600;5.718;2024-03-22T10:45:12;17.60;;;12.40;;
68438;SDS011;55421;51.600;5.718;2024-03-22T10:47:41;17.20;;;11.10;;
68438;SDS011;55421;51.600;5.718;2024-03-22T10:50:11;18.70;;;10.80;;
68438;SDS011;55421;51.600;5.718;2024-03-22T10:52:48;18.60;;;11.80;;
68438;SDS011;55421;51.600;5.718;2024-03-22T10:55:26;17.30;;;11.90;;
68438;SDS011;55421;51.600;5.718;2024-03-22T10:58:05;16.70;;;11.50;;
68438;SDS011;55421;51.600;5.718;2024-03-22T11:00:36;19.70;;;11.70;;
68438;SDS011;55421;51.600;5.718;2024-03-22T11:05:33;16.90;;;11.50;;
68438;SDS011;55421;51.600;5.718;2024-03-22T11:08:04;16.70;;;11.00;;
68438;SDS011;55421;51.600;5.718;2024-03-22T11:10:36;17.80;;;11.50;;
68438;SDS011;55421;51.600;5.718;2024-03-22T11:13:05;16.60;;;10.70;;
68438;SDS011;55421;51.600;5.718;2024-03-22T11:15:37;20.00;;;12.00;;
68438;SDS011;55421;51.600;5.718;2024-03-22T11:18:04;16.30;;;9.90;;
68438;SDS011;55421;51.600;5.718;2024-03-22T11:20:36;19.50;;;12.90;;
68438;SDS011;55421;51.600;5.718;2024-03-22T11:23:05;19.30;;;11.90;;
68438;SDS011;55421;51.600;5.718;2024-03-22T11:25:33;18.80;;;13.40;;
68438;SDS011;55421;51.600;5.718;2024-03-22T11:28:03;16.80;;;11.70;;
68438;SDS011;55421;51.600;5.718;2024-03-22T11:30:31;20.90;;;12.10;;
68438;SDS011;55421;51.600;5.718;2024-03-22T11:33:08;17.00;;;10.80;;
68438;SDS011;55421;51.600;5.718;2024-03-22T11:35:40;18.20;;;11.90;;
68438;SDS011;55421;51.600;5.718;2024-03-22T11:38:07;19.10;;;12.30;;
68438;SDS011;55421;51.600;5.718;2024-03-22T11:40:34;16.60;;;10.40;;
68438;SDS011;55421;51.600;5.718;2024-03-22T11:43:02;16.20;;;9.60;;
68438;SDS011;55421;51.600;5.718;2024-03-22T11:45:30;14.00;;;9.40;;
68438;SDS011;55421;51.600;5.718;2024-03-22T11:48:02;15.20;;;9.70;;
68438;SDS011;55421;51.600;5.718;2024-03-22T11:50:29;11.40;;;8.20;;
68438;SDS011;55421;51.600;5.718;2024-03-22T11:52:56;10.60;;;7.60;;
68438;SDS011;55421;51.600;5.718;2024-03-22T11:55:22;15.70;;;7.70;;
68438;SDS011;55421;51.600;5.718;2024-03-22T11:57:48;10.40;;;8.20;;
68438;SDS011;55421;51.600;5.718;2024-03-22T12:00:19;10.50;;;7.40;;
68438;SDS011;55421;51.600;5.718;2024-03-22T12:02:45;12.20;;;7.50;;
68438;SDS011;55421;51.600;5.718;2024-03-22T12:05:12;11.00;;;7.50;;
68438;SDS011;55421;51.600;5.718;2024-03-22T12:07:39;12.00;;;7.80;;
68438;SDS011;55421;51.600;5.718;2024-03-22T12:10:07;9.70;;;6.20;;
68438;SDS011;55421;51.600;5.718;2024-03-22T12:12:33;10.00;;;7.00;;
68438;SDS011;55421;51.600;5.718;2024-03-22T12:15:00;14.30;;;7.50;;
68438;SDS011;55421;51.600;5.718;2024-03-22T12:17:26;13.30;;;7.10;;
68438;SDS011;55421;51.600;5.718;2024-03-22T12:19:55;10.70;;;6.90;;
68438;SDS011;55421;51.600;5.718;2024-03-22T12:22:22;9.80;;;6.10;;
68438;SDS011;55421;51.600;5.718;2024-03-22T12:24:48;11.90;;;6.10;;
68438;SDS011;55421;51.600;5.718;2024-03-22T12:27:15;9.50;;;6.00;;
68438;SDS011;55421;51.600;5.718;2024-03-22T12:29:41;8.20;;;5.90;;
68438;SDS011;55421;51.600;5.718;2024-03-22T12:32:07;8.90;;;5.90;;
68438;SDS011;55421;51.600;5.718;2024-03-22T12:34:34;8.20;;;6.10;;
68438;SDS011;55421;51.600;5.718;2024-03-22T12:37:00;11.20;;;4.80;;
68438;SDS011;55421;51.600;5.718;2024-03-22T12:39:27;9.20;;;6.10;;
68438;SDS011;55421;51.600;5.718;2024-03-22T12:41:53;7.10;;;5.50;;
68438;SDS011;55421;51.600;5.718;2024-03-22T12:44:20;9.10;;;6.40;;
68438;SDS011;55421;51.600;5.718;2024-03-22T12:46:47;10.80;;;5.90;;
68438;SDS011;55421;51.600;5.718;2024-03-22T12:49:13;8.30;;;5.50;;
68438;SDS011;55421;51.600;5.718;2024-03-22T12:51:40;9.40;;;5.20;;
68438;SDS011;55421;51.600;5.718;2024-03-22T12:54:07;9.20;;;5.80;;
68438;SDS011;55421;51.600;5.718;2024-03-22T12:56:34;8.20;;;5.90;;
68438;SDS011;55421;51.600;5.718;2024-03-22T12:59:02;8.20;;;6.00;;
68438;SDS011;55421;51.600;5.718;2024-03-22T13:01:29;9.40;;;5.50;;
68438;SDS011;55421;51.600;5.718;2024-03-22T13:03:55;8.40;;;5.40;;
68438;SDS011;55421;51.600;5.718;2024-03-22T13:06:22;7.50;;;5.20;;
68438;SDS011;55421;51.600;5.718;2024-03-22T13:08:49;8.00;;;5.50;;
68438;SDS011;55421;51.600;5.718;2024-03-22T13:11:15;8.20;;;5.80;;
68438;SDS011;55421;51.600;5.718;2024-03-22T13:13:43;9.00;;;5.70;;
68438;SDS011;55421;51.600;5.718;2024-03-22T13:16:09;10.50;;;6.60;;
68438;SDS011;55421;51.600;5.718;2024-03-22T13:21:08;11.10;;;5.60;;
68438;SDS011;55421;51.600;5.718;2024-03-22T13:23:34;7.40;;;6.20;;
68438;SDS011;55421;51.600;5.718;2024-03-22T13:26:04;10.00;;;5.40;;
68438;SDS011;55421;51.600;5.718;2024-03-22T13:28:33;8.90;;;5.30;;
68438;SDS011;55421;51.600;5.718;2024-03-22T13:31:03;8.70;;;5.80;;
68438;SDS011;55421;51.600;5.718;2024-03-22T13:33:35;8.10;;;5.40;;
68438;SDS011;55421;51.600;5.718;2024-03-22T13:36:02;7.50;;;5.60;;
68438;SDS011;55421;51.600;5.718;2024-03-22T13:38:31;8.50;;;6.00;;
68438;SDS011;55421;51.600;5.718;2024-03-22T13:40:58;10.50;;;5.90;;
68438;SDS011;55421;51.600;5.718;2024-03-22T13:43:26;8.60;;;5.60;;
68438;SDS011;55421;51.600;5.718;2024-03-22T13:45:53;8.70;;;6.30;;
68438;SDS011;55421;51.600;5.718;2024-03-22T13:48:24;8.40;;;6.10;;
68438;SDS011;55421;51.600;5.718;2024-03-22T13:50:52;9.50;;;6.40;;
68438;SDS011;55421;51.600;5.718;2024-03-22T13:53:20;7.80;;;6.10;;
68438;SDS011;55421;51.600;5.718;2024-03-22T13:55:50;8.30;;;6.80;;
68438;SDS011;55421;51.600;5.718;2024-03-22T13:58:17;10.30;;;6.20;;
68438;SDS011;55421;51.600;5.718;2024-03-22T14:00:44;9.20;;;6.50;;
68438;SDS011;55421;51.600;5.718;2024-03-22T14:03:11;7.60;;;5.30;;
68438;SDS011;55421;51.600;5.718;2024-03-22T14:05:37;7.40;;;6.00;;
68438;SDS011;55421;51.600;5.718;2024-03-22T14:08:04;8.60;;;5.90;;
68438;SDS011;55421;51.600;5.718;2024-03-22T14:10:30;8.20;;;5.60;;
68438;SDS011;55421;51.600;5.718;2024-03-22T14:12:57;12.30;;;6.60;;
68438;SDS011;55421;51.600;5.718;2024-03-22T14:15:24;8.50;;;5.40;;
68438;SDS011;55421;51.600;5.718;2024-03-22T14:17:53;7.20;;;4.90;;
68438;SDS011;55421;51.600;5.718;2024-03-22T14:20:19;6.90;;;5.30;;
68438;SDS011;55421;51.600;5.718;2024-03-22T14:22:46;5.90;;;4.50;;
68438;SDS011;55421;51.600;5.718;2024-03-22T14:25:13;6.20;;;4.60;;
68438;SDS011;55421;51.600;5.718;2024-03-22T14:27:40;6.10;;;4.70;;
68438;SDS011;55421;51.600;5.718;2024-03-22T14:30:12;5.10;;;4.30;;
68438;SDS011;55421;51.600;5.718;2024-03-22T14:32:41;4.80;;;4.30;;
68438;SDS011;55421;51.600;5.718;2024-03-22T14:35:07;5.40;;;3.60;;